sensor_id;sensor_type;location;lat;lon;timestamp;temperature;humidity
50570;DHT22;36525;49.398;7.614;2023-12-20T00:00:22;3.40;99.90
50570;DHT22;36525;49.398;7.614;2023-12-20T00:02:49;3.40;99.90
50570;DHT22;36525;49.398;7.614;2023-12-20T00:05:16;3.40;99.90
50570;DHT22;36525;49.398;7.614;2023-12-20T00:07:43;3.50;99.90
50570;DHT22;36525;49.398;7.614;2023-12-20T00:10:11;3.40;99.90
50570;DHT22;36525;49.398;7.614;2023-12-20T00:12:39;3.40;99.90
50570;DHT22;36525;49.398;7.614;2023-12-20T00:15:07;3.40;99.90
50570;DHT22;36525;49.398;7.614;2023-12-20T00:17:35;3.50;99.90
50570;DHT22;36525;49.398;7.614;2023-12-20T00:20:02;3.50;99.90
50570;DHT22;36525;49.398;7.614;2023-12-20T00:22:29;3.50;99.90
50570;DHT22;36525;49.398;7.614;2023-12-20T00:24:56;3.50;99.90
50570;DHT22;36525;49.398;7.614;2023-12-20T00:27:22;3.50;99.90
50570;DHT22;36525;49.398;7.614;2023-12-20T00:29:49;3.40;99.90
50570;DHT22;36525;49.398;7.614;2023-12-20T00:32:16;3.50;99.90
50570;DHT22;36525;49.398;7.614;2023-12-20T00:34:43;3.40;99.90
50570;DHT22;36525;49.398;7.614;2023-12-20T00:37:10;3.50;99.90
50570;DHT22;36525;49.398;7.614;2023-12-20T00:39:37;3.50;99.90
50570;DHT22;36525;49.398;7.614;2023-12-20T00:42:04;3.50;99.90
50570;DHT22;36525;49.398;7.614;2023-12-20T00:44:31;3.50;99.90
50570;DHT22;36525;49.398;7.614;2023-12-20T00:46:58;3.50;99.90
50570;DHT22;36525;49.398;7.614;2023-12-20T00:49:24;3.50;99.90
50570;DHT22;36525;49.398;7.614;2023-12-20T00:51:52;3.50;99.90
50570;DHT22;36525;49.398;7.614;2023-12-20T00:54:19;3.50;99.90
50570;DHT22;36525;49.398;7.614;2023-12-20T00:56:46;3.50;99.90
50570;DHT22;36525;49.398;7.614;2023-12-20T00:59:13;3.50;99.90
50570;DHT22;36525;49.398;7.614;2023-12-20T01:01:41;3.50;99.90
50570;DHT22;36525;49.398;7.614;2023-12-20T01:04:08;3.60;99.90
50570;DHT22;36525;49.398;7.614;2023-12-20T01:06:35;3.60;99.90
50570;DHT22;36525;49.398;7.614;2023-12-20T01:09:02;3.60;99.90
50570;DHT22;36525;49.398;7.614;2023-12-20T01:11:29;3.60;99.90
50570;DHT22;36525;49.398;7.614;2023-12-20T01:13:56;3.60;99.90
50570;DHT22;36525;49.398;7.614;2023-12-20T01:16:23;3.60;99.90
50570;DHT22;36525;49.398;7.614;2023-12-20T01:18:49;3.60;99.90
50570;DHT22;36525;49.398;7.614;2023-12-20T01:21:16;3.60;99.90
50570;DHT22;36525;49.398;7.614;2023-12-20T01:23:43;3.60;99.90
50570;DHT22;36525;49.398;7.614;2023-12-20T01:26:10;3.60;99.90
50570;DHT22;36525;49.398;7.614;2023-12-20T01:28:37;3.60;99.90
50570;DHT22;36525;49.398;7.614;2023-12-20T01:31:04;3.60;99.90
50570;DHT22;36525;49.398;7.614;2023-12-20T01:33:31;3.60;99.90
50570;DHT22;36525;49.398;7.614;2023-12-20T01:35:58;3.70;99.90
50570;DHT22;36525;49.398;7.614;2023-12-20T01:38:25;3.70;99.90
50570;DHT22;36525;49.398;7.614;2023-12-20T01:40:51;3.70;99.90
50570;DHT22;36525;49.398;7.614;2023-12-20T01:43:18;3.60;99.90
50570;DHT22;36525;49.398;7.614;2023-12-20T01:45:46;3.60;99.90
50570;DHT22;36525;49.398;7.614;2023-12-20T01:48:14;3.60;99.90
50570;DHT22;36525;49.398;7.614;2023-12-20T01:50:41;3.70;99.90
50570;DHT22;36525;49.398;7.614;2023-12-20T01:53:10;3.60;99.90
50570;DHT22;36525;49.398;7.614;2023-12-20T01:55:39;3.70;99.90
50570;DHT22;36525;49.398;7.614;2023-12-20T01:58:07;3.70;99.90
50570;DHT22;36525;49.398;7.614;2023-12-20T02:00:35;3.60;99.90
50570;DHT22;36525;49.398;7.614;2023-12-20T02:03:03;3.70;99.90
50570;DHT22;36525;49.398;7.614;2023-12-20T02:05:31;3.70;99.90
50570;DHT22;36525;49.398;7.614;2023-12-20T02:07:58;3.70;99.90
50570;DHT22;36525;49.398;7.614;2023-12-20T02:10:25;3.70;99.90
50570;DHT22;36525;49.398;7.614;2023-12-20T02:12:52;3.70;99.90
50570;DHT22;36525;49.398;7.614;2023-12-20T02:15:19;3.70;99.90
50570;DHT22;36525;49.398;7.614;2023-12-20T02:17:46;3.70;99.90
50570;DHT22;36525;49.398;7.614;2023-12-20T02:20:14;3.70;99.90
50570;DHT22;36525;49.398;7.614;2023-12-20T02:22:41;3.80;99.90
50570;DHT22;36525;49.398;7.614;2023-12-20T02:25:08;3.80;99.90
50570;DHT22;36525;49.398;7.614;2023-12-20T02:27:35;3.70;99.90
50570;DHT22;36525;49.398;7.614;2023-12-20T02:30:02;3.80;99.90
50570;DHT22;36525;49.398;7.614;2023-12-20T02:32:29;3.80;99.90
50570;DHT22;36525;49.398;7.614;2023-12-20T02:34:57;3.80;99.90
50570;DHT22;36525;49.398;7.614;2023-12-20T02:37:24;3.80;99.90
50570;DHT22;36525;49.398;7.614;2023-12-20T02:39:51;3.80;99.90
50570;DHT22;36525;49.398;7.614;2023-12-20T02:42:18;3.90;99.90
50570;DHT22;36525;49.398;7.614;2023-12-20T02:47:12;3.80;99.90
50570;DHT22;36525;49.398;7.614;2023-12-20T02:49:39;3.80;99.90
50570;DHT22;36525;49.398;7.614;2023-12-20T02:52:05;3.90;99.90
50570;DHT22;36525;49.398;7.614;2023-12-20T02:54:32;3.80;99.90
50570;DHT22;36525;49.398;7.614;2023-12-20T02:56:59;3.80;99.90
50570;DHT22;36525;49.398;7.614;2023-12-20T02:59:26;3.80;99.90
50570;DHT22;36525;49.398;7.614;2023-12-20T03:01:53;3.80;99.90
50570;DHT22;36525;49.398;7.614;2023-12-20T03:04:20;3.80;99.90
50570;DHT22;36525;49.398;7.614;2023-12-20T03:06:47;3.80;99.90
50570;DHT22;36525;49.398;7.614;2023-12-20T03:09:14;3.80;99.90
50570;DHT22;36525;49.398;7.614;2023-12-20T03:11:41;3.90;99.90
50570;DHT22;36525;49.398;7.614;2023-12-20T03:14:08;3.90;99.90
50570;DHT22;36525;49.398;7.614;2023-12-20T03:16:35;4.00;99.90
50570;DHT22;36525;49.398;7.614;2023-12-20T03:19:02;4.00;99.90
50570;DHT22;36525;49.398;7.614;2023-12-20T03:21:30;4.00;99.90
50570;DHT22;36525;49.398;7.614;2023-12-20T03:23:56;4.00;99.90
50570;DHT22;36525;49.398;7.614;2023-12-20T03:26:24;4.00;99.90
50570;DHT22;36525;49.398;7.614;2023-12-20T03:28:51;4.00;99.90
50570;DHT22;36525;49.398;7.614;2023-12-20T03:31:18;4.00;99.90
50570;DHT22;36525;49.398;7.614;2023-12-20T03:33:46;4.00;99.90
50570;DHT22;36525;49.398;7.614;2023-12-20T03:36:13;4.00;99.90
50570;DHT22;36525;49.398;7.614;2023-12-20T03:38:40;4.00;99.90
50570;DHT22;36525;49.398;7.614;2023-12-20T03:41:07;4.10;99.90
50570;DHT22;36525;49.398;7.614;2023-12-20T03:43:34;4.10;99.90
50570;DHT22;36525;49.398;7.614;2023-12-20T03:46:02;4.10;99.90
50570;DHT22;36525;49.398;7.614;2023-12-20T03:48:31;4.10;99.90
50570;DHT22;36525;49.398;7.614;2023-12-20T03:50:57;4.10;99.90
50570;DHT22;36525;49.398;7.614;2023-12-20T03:53:24;4.10;99.90
50570;DHT22;36525;49.398;7.614;2023-12-20T03:55:51;4.10;99.90
50570;DHT22;36525;49.398;7.614;2023-12-20T03:58:18;4.10;99.90
50570;DHT22;36525;49.398;7.614;2023-12-20T04:00:45;4.20;99.90
50570;DHT22;36525;49.398;7.614;2023-12-20T04:03:12;4.20;99.90
50570;DHT22;36525;49.398;7.614;2023-12-20T04:05:41;4.20;99.90
50570;DHT22;36525;49.398;7.614;2023-12-20T04:08:08;4.20;99.90
50570;DHT22;36525;49.398;7.614;2023-12-20T04:10:36;4.30;99.90
50570;DHT22;36525;49.398;7.614;2023-12-20T04:13:04;4.30;99.90
50570;DHT22;36525;49.398;7.614;2023-12-20T04:15:31;4.30;99.90
50570;DHT22;36525;49.398;7.614;2023-12-20T04:17:58;4.30;99.90
50570;DHT22;36525;49.398;7.614;2023-12-20T04:20:25;4.30;99.90
50570;DHT22;36525;49.398;7.614;2023-12-20T04:22:52;4.40;99.90
50570;DHT22;36525;49.398;7.614;2023-12-20T04:25:19;4.40;99.90
50570;DHT22;36525;49.398;7.614;2023-12-20T04:27:46;4.40;99.90
50570;DHT22;36525;49.398;7.614;2023-12-20T04:30:15;4.40;99.90
50570;DHT22;36525;49.398;7.614;2023-12-20T04:32:42;4.50;99.90
50570;DHT22;36525;49.398;7.614;2023-12-20T04:35:09;4.50;99.90
50570;DHT22;36525;49.398;7.614;2023-12-20T04:37:36;4.50;99.90
50570;DHT22;36525;49.398;7.614;2023-12-20T04:40:03;4.50;99.90
50570;DHT22;36525;49.398;7.614;2023-12-20T04:42:32;4.60;99.90
50570;DHT22;36525;49.398;7.614;2023-12-20T04:44:59;4.60;99.90
50570;DHT22;36525;49.398;7.614;2023-12-20T04:47:26;4.60;99.90
50570;DHT22;36525;49.398;7.614;2023-12-20T04:49:53;4.70;99.90
50570;DHT22;36525;49.398;7.614;2023-12-20T04:52:20;4.70;99.90
50570;DHT22;36525;49.398;7.614;2023-12-20T04:54:47;4.70;99.90
50570;DHT22;36525;49.398;7.614;2023-12-20T04:57:13;4.70;99.90
50570;DHT22;36525;49.398;7.614;2023-12-20T04:59:40;4.80;99.90
50570;DHT22;36525;49.398;7.614;2023-12-20T05:02:08;4.80;99.90
50570;DHT22;36525;49.398;7.614;2023-12-20T05:04:35;4.80;99.90
50570;DHT22;36525;49.398;7.614;2023-12-20T05:07:02;4.90;99.90
50570;DHT22;36525;49.398;7.614;2023-12-20T05:09:31;4.80;99.90
50570;DHT22;36525;49.398;7.614;2023-12-20T05:11:58;4.80;99.90
50570;DHT22;36525;49.398;7.614;2023-12-20T05:14:25;4.80;99.90
50570;DHT22;36525;49.398;7.614;2023-12-20T05:16:52;4.80;99.90
50570;DHT22;36525;49.398;7.614;2023-12-20T05:19:19;4.70;99.90
50570;DHT22;36525;49.398;7.614;2023-12-20T05:21:46;4.70;99.90
50570;DHT22;36525;49.398;7.614;2023-12-20T05:24:13;4.70;99.90
50570;DHT22;36525;49.398;7.614;2023-12-20T05:26:40;4.70;99.90
50570;DHT22;36525;49.398;7.614;2023-12-20T05:29:07;4.60;99.90
50570;DHT22;36525;49.398;7.614;2023-12-20T05:31:33;4.60;99.90
50570;DHT22;36525;49.398;7.614;2023-12-20T05:34:00;4.60;99.90
50570;DHT22;36525;49.398;7.614;2023-12-20T05:36:28;4.60;99.90
50570;DHT22;36525;49.398;7.614;2023-12-20T05:38:55;4.50;99.90
50570;DHT22;36525;49.398;7.614;2023-12-20T05:41:21;4.50;99.90
50570;DHT22;36525;49.398;7.614;2023-12-20T05:43:49;4.50;99.90
50570;DHT22;36525;49.398;7.614;2023-12-20T05:46:16;4.50;99.90
50570;DHT22;36525;49.398;7.614;2023-12-20T05:48:42;4.60;99.90
50570;DHT22;36525;49.398;7.614;2023-12-20T05:51:11;4.70;99.90
50570;DHT22;36525;49.398;7.614;2023-12-20T05:53:38;4.70;99.90
50570;DHT22;36525;49.398;7.614;2023-12-20T05:56:05;4.70;99.90
50570;DHT22;36525;49.398;7.614;2023-12-20T05:58:33;4.70;99.90
50570;DHT22;36525;49.398;7.614;2023-12-20T06:01:00;4.70;99.90
50570;DHT22;36525;49.398;7.614;2023-12-20T06:03:27;4.70;99.90
50570;DHT22;36525;49.398;7.614;2023-12-20T06:05:54;4.80;99.90
50570;DHT22;36525;49.398;7.614;2023-12-20T06:08:38;4.80;99.90
50570;DHT22;36525;49.398;7.614;2023-12-20T06:11:05;4.80;99.90
50570;DHT22;36525;49.398;7.614;2023-12-20T06:13:32;4.70;99.90
50570;DHT22;36525;49.398;7.614;2023-12-20T06:15:59;4.70;99.90
50570;DHT22;36525;49.398;7.614;2023-12-20T06:18:26;4.60;99.90
50570;DHT22;36525;49.398;7.614;2023-12-20T06:20:53;4.60;99.90
50570;DHT22;36525;49.398;7.614;2023-12-20T06:23:19;4.50;99.90
50570;DHT22;36525;49.398;7.614;2023-12-20T06:25:46;4.50;99.90
50570;DHT22;36525;49.398;7.614;2023-12-20T06:28:13;4.50;99.90
50570;DHT22;36525;49.398;7.614;2023-12-20T06:30:41;4.50;99.90
50570;DHT22;36525;49.398;7.614;2023-12-20T06:33:08;4.50;99.90
50570;DHT22;36525;49.398;7.614;2023-12-20T06:35:36;4.50;99.90
50570;DHT22;36525;49.398;7.614;2023-12-20T06:38:03;4.40;99.90
50570;DHT22;36525;49.398;7.614;2023-12-20T06:40:30;4.40;99.90
50570;DHT22;36525;49.398;7.614;2023-12-20T06:42:57;4.30;99.90
50570;DHT22;36525;49.398;7.614;2023-12-20T06:45:37;4.20;99.90
50570;DHT22;36525;49.398;7.614;2023-12-20T06:48:04;4.10;99.90
50570;DHT22;36525;49.398;7.614;2023-12-20T06:50:32;4.10;99.90
50570;DHT22;36525;49.398;7.614;2023-12-20T06:52:59;4.00;99.90
50570;DHT22;36525;49.398;7.614;2023-12-20T06:55:26;4.00;99.90
50570;DHT22;36525;49.398;7.614;2023-12-20T06:57:53;4.10;99.90
50570;DHT22;36525;49.398;7.614;2023-12-20T07:00:20;4.00;99.90
50570;DHT22;36525;49.398;7.614;2023-12-20T07:02:47;4.00;99.90
50570;DHT22;36525;49.398;7.614;2023-12-20T07:05:16;4.10;99.90
50570;DHT22;36525;49.398;7.614;2023-12-20T07:07:43;4.00;99.90
50570;DHT22;36525;49.398;7.614;2023-12-20T07:10:10;4.00;99.90
50570;DHT22;36525;49.398;7.614;2023-12-20T07:12:37;3.90;99.90
50570;DHT22;36525;49.398;7.614;2023-12-20T07:15:04;3.90;99.90
50570;DHT22;36525;49.398;7.614;2023-12-20T07:17:34;3.90;99.90
50570;DHT22;36525;49.398;7.614;2023-12-20T07:20:01;3.90;99.90
50570;DHT22;36525;49.398;7.614;2023-12-20T07:22:30;4.00;99.90
50570;DHT22;36525;49.398;7.614;2023-12-20T07:24:59;3.90;99.90
50570;DHT22;36525;49.398;7.614;2023-12-20T07:27:26;3.90;99.90
50570;DHT22;36525;49.398;7.614;2023-12-20T07:29:53;3.80;99.90
50570;DHT22;36525;49.398;7.614;2023-12-20T07:32:20;3.90;99.90
50570;DHT22;36525;49.398;7.614;2023-12-20T07:34:47;3.90;99.90
50570;DHT22;36525;49.398;7.614;2023-12-20T07:37:14;3.90;99.90
50570;DHT22;36525;49.398;7.614;2023-12-20T07:39:41;3.90;99.90
50570;DHT22;36525;49.398;7.614;2023-12-20T07:42:08;3.90;99.90
50570;DHT22;36525;49.398;7.614;2023-12-20T07:44:35;3.80;99.90
50570;DHT22;36525;49.398;7.614;2023-12-20T07:47:02;3.90;99.90
50570;DHT22;36525;49.398;7.614;2023-12-20T07:49:30;3.80;99.90
50570;DHT22;36525;49.398;7.614;2023-12-20T07:51:57;3.80;99.90
50570;DHT22;36525;49.398;7.614;2023-12-20T07:54:24;3.90;99.90
50570;DHT22;36525;49.398;7.614;2023-12-20T07:56:51;3.90;99.90
50570;DHT22;36525;49.398;7.614;2023-12-20T07:59:18;3.80;99.90
50570;DHT22;36525;49.398;7.614;2023-12-20T08:01:58;3.80;99.90
50570;DHT22;36525;49.398;7.614;2023-12-20T08:04:25;3.80;99.90
50570;DHT22;36525;49.398;7.614;2023-12-20T08:06:52;3.80;99.90
50570;DHT22;36525;49.398;7.614;2023-12-20T08:09:19;3.70;99.90
50570;DHT22;36525;49.398;7.614;2023-12-20T08:11:47;3.70;99.90
50570;DHT22;36525;49.398;7.614;2023-12-20T08:14:14;3.80;99.90
50570;DHT22;36525;49.398;7.614;2023-12-20T08:16:42;3.70;99.90
50570;DHT22;36525;49.398;7.614;2023-12-20T08:19:09;3.70;99.90
50570;DHT22;36525;49.398;7.614;2023-12-20T08:21:38;3.80;99.90
50570;DHT22;36525;49.398;7.614;2023-12-20T08:24:05;3.70;99.90
50570;DHT22;36525;49.398;7.614;2023-12-20T08:26:32;3.70;99.90
50570;DHT22;36525;49.398;7.614;2023-12-20T08:28:59;3.70;99.90
50570;DHT22;36525;49.398;7.614;2023-12-20T08:31:28;3.80;99.90
50570;DHT22;36525;49.398;7.614;2023-12-20T08:33:55;3.70;99.90
50570;DHT22;36525;49.398;7.614;2023-12-20T08:36:22;3.70;99.90
50570;DHT22;36525;49.398;7.614;2023-12-20T08:38:50;3.70;99.90
50570;DHT22;36525;49.398;7.614;2023-12-20T08:41:17;3.70;99.90
50570;DHT22;36525;49.398;7.614;2023-12-20T08:43:44;3.70;99.90
50570;DHT22;36525;49.398;7.614;2023-12-20T08:46:13;3.70;99.90
50570;DHT22;36525;49.398;7.614;2023-12-20T08:48:40;3.70;99.90
50570;DHT22;36525;49.398;7.614;2023-12-20T08:51:07;3.80;99.90
50570;DHT22;36525;49.398;7.614;2023-12-20T08:53:38;3.80;99.90
50570;DHT22;36525;49.398;7.614;2023-12-20T08:56:06;3.80;99.90
50570;DHT22;36525;49.398;7.614;2023-12-20T08:58:33;3.90;99.90
50570;DHT22;36525;49.398;7.614;2023-12-20T09:01:03;3.90;99.90
50570;DHT22;36525;49.398;7.614;2023-12-20T09:03:30;4.00;99.90
50570;DHT22;36525;49.398;7.614;2023-12-20T09:05:57;4.10;99.90
50570;DHT22;36525;49.398;7.614;2023-12-20T09:08:24;4.20;99.90
50570;DHT22;36525;49.398;7.614;2023-12-20T09:10:51;4.20;99.90
50570;DHT22;36525;49.398;7.614;2023-12-20T09:13:18;4.40;99.90
50570;DHT22;36525;49.398;7.614;2023-12-20T09:15:45;4.40;99.90
50570;DHT22;36525;49.398;7.614;2023-12-20T09:18:12;4.40;99.90
50570;DHT22;36525;49.398;7.614;2023-12-20T09:20:39;4.50;99.90
50570;DHT22;36525;49.398;7.614;2023-12-20T09:23:09;4.60;99.90
50570;DHT22;36525;49.398;7.614;2023-12-20T09:25:36;4.60;99.90
50570;DHT22;36525;49.398;7.614;2023-12-20T09:28:03;4.60;99.90
50570;DHT22;36525;49.398;7.614;2023-12-20T09:30:30;4.70;99.90
50570;DHT22;36525;49.398;7.614;2023-12-20T09:32:58;4.70;99.90
50570;DHT22;36525;49.398;7.614;2023-12-20T09:35:25;4.80;99.90
50570;DHT22;36525;49.398;7.614;2023-12-20T09:37:53;4.70;99.90
50570;DHT22;36525;49.398;7.614;2023-12-20T09:40:20;4.90;99.90
50570;DHT22;36525;49.398;7.614;2023-12-20T09:45:17;4.90;99.90
50570;DHT22;36525;49.398;7.614;2023-12-20T09:47:46;4.80;99.90
50570;DHT22;36525;49.398;7.614;2023-12-20T09:50:14;4.90;99.90
50570;DHT22;36525;49.398;7.614;2023-12-20T09:52:41;4.80;99.90
50570;DHT22;36525;49.398;7.614;2023-12-20T09:55:08;4.80;99.90
50570;DHT22;36525;49.398;7.614;2023-12-20T09:57:36;4.80;99.90
50570;DHT22;36525;49.398;7.614;2023-12-20T10:00:03;4.80;99.90
50570;DHT22;36525;49.398;7.614;2023-12-20T10:02:31;4.90;99.90
50570;DHT22;36525;49.398;7.614;2023-12-20T10:04:59;4.80;99.90
50570;DHT22;36525;49.398;7.614;2023-12-20T10:07:26;4.70;99.90
50570;DHT22;36525;49.398;7.614;2023-12-20T10:09:54;4.80;99.90
50570;DHT22;36525;49.398;7.614;2023-12-20T10:12:21;4.80;99.90
50570;DHT22;36525;49.398;7.614;2023-12-20T10:14:48;4.60;99.90
50570;DHT22;36525;49.398;7.614;2023-12-20T10:17:15;4.70;99.90
50570;DHT22;36525;49.398;7.614;2023-12-20T10:19:42;4.70;99.90
50570;DHT22;36525;49.398;7.614;2023-12-20T10:22:10;4.70;99.90
50570;DHT22;36525;49.398;7.614;2023-12-20T10:24:37;4.70;99.90
50570;DHT22;36525;49.398;7.614;2023-12-20T10:27:04;4.70;99.90
50570;DHT22;36525;49.398;7.614;2023-12-20T10:29:32;4.80;99.90
50570;DHT22;36525;49.398;7.614;2023-12-20T10:32:23;4.70;99.90
50570;DHT22;36525;49.398;7.614;2023-12-20T10:34:52;4.70;99.90
50570;DHT22;36525;49.398;7.614;2023-12-20T10:37:20;4.70;99.90
50570;DHT22;36525;49.398;7.614;2023-12-20T10:39:51;4.80;99.90
50570;DHT22;36525;49.398;7.614;2023-12-20T10:42:21;4.70;99.90
50570;DHT22;36525;49.398;7.614;2023-12-20T10:44:49;4.80;99.90
50570;DHT22;36525;49.398;7.614;2023-12-20T10:47:16;4.90;99.90
50570;DHT22;36525;49.398;7.614;2023-12-20T10:49:44;4.90;99.90
50570;DHT22;36525;49.398;7.614;2023-12-20T10:52:12;4.90;99.90
50570;DHT22;36525;49.398;7.614;2023-12-20T10:54:39;4.80;99.90
50570;DHT22;36525;49.398;7.614;2023-12-20T10:57:07;4.90;99.90
50570;DHT22;36525;49.398;7.614;2023-12-20T10:59:36;4.90;99.90
50570;DHT22;36525;49.398;7.614;2023-12-20T11:02:04;4.80;99.90
50570;DHT22;36525;49.398;7.614;2023-12-20T11:07:36;4.80;99.90
50570;DHT22;36525;49.398;7.614;2023-12-20T11:10:10;4.80;99.90
50570;DHT22;36525;49.398;7.614;2023-12-20T11:12:51;4.90;99.90
50570;DHT22;36525;49.398;7.614;2023-12-20T11:15:18;4.80;99.90
50570;DHT22;36525;49.398;7.614;2023-12-20T11:17:46;4.90;99.90
50570;DHT22;36525;49.398;7.614;2023-12-20T11:20:18;5.00;99.90
50570;DHT22;36525;49.398;7.614;2023-12-20T11:22:54;5.00;99.90
50570;DHT22;36525;49.398;7.614;2023-12-20T11:25:22;4.90;99.90
50570;DHT22;36525;49.398;7.614;2023-12-20T11:28:06;4.90;99.90
50570;DHT22;36525;49.398;7.614;2023-12-20T11:30:41;4.90;99.90
50570;DHT22;36525;49.398;7.614;2023-12-20T11:33:15;5.00;99.90
50570;DHT22;36525;49.398;7.614;2023-12-20T11:35:43;5.00;99.90
50570;DHT22;36525;49.398;7.614;2023-12-20T11:38:13;5.00;99.90
50570;DHT22;36525;49.398;7.614;2023-12-20T11:40:41;5.00;99.90
50570;DHT22;36525;49.398;7.614;2023-12-20T11:43:09;5.00;99.90
50570;DHT22;36525;49.398;7.614;2023-12-20T11:45:36;4.90;99.90
50570;DHT22;36525;49.398;7.614;2023-12-20T11:48:03;4.90;99.90
50570;DHT22;36525;49.398;7.614;2023-12-20T11:50:31;5.00;99.90
50570;DHT22;36525;49.398;7.614;2023-12-20T11:52:58;5.00;99.90
50570;DHT22;36525;49.398;7.614;2023-12-20T11:55:25;5.00;99.90
50570;DHT22;36525;49.398;7.614;2023-12-20T11:57:52;5.10;99.90
50570;DHT22;36525;49.398;7.614;2023-12-20T12:00:19;5.10;99.90
50570;DHT22;36525;49.398;7.614;2023-12-20T12:02:57;5.10;99.90
50570;DHT22;36525;49.398;7.614;2023-12-20T12:05:25;5.10;99.90
50570;DHT22;36525;49.398;7.614;2023-12-20T12:07:52;5.00;99.90
50570;DHT22;36525;49.398;7.614;2023-12-20T12:10:20;5.10;99.90
50570;DHT22;36525;49.398;7.614;2023-12-20T12:12:47;5.20;99.90
50570;DHT22;36525;49.398;7.614;2023-12-20T12:15:15;5.10;99.90
50570;DHT22;36525;49.398;7.614;2023-12-20T12:17:42;5.10;99.90
50570;DHT22;36525;49.398;7.614;2023-12-20T12:20:09;5.10;99.90
50570;DHT22;36525;49.398;7.614;2023-12-20T12:22:36;5.20;99.90
50570;DHT22;36525;49.398;7.614;2023-12-20T12:25:10;5.10;99.90
50570;DHT22;36525;49.398;7.614;2023-12-20T12:27:42;5.00;99.90
50570;DHT22;36525;49.398;7.614;2023-12-20T12:30:10;5.00;99.90
50570;DHT22;36525;49.398;7.614;2023-12-20T12:32:39;5.00;99.90
50570;DHT22;36525;49.398;7.614;2023-12-20T12:35:10;5.00;99.90
50570;DHT22;36525;49.398;7.614;2023-12-20T12:37:38;4.90;99.90
50570;DHT22;36525;49.398;7.614;2023-12-20T12:40:11;4.90;99.90
50570;DHT22;36525;49.398;7.614;2023-12-20T12:42:43;5.00;99.90
50570;DHT22;36525;49.398;7.614;2023-12-20T12:45:11;5.00;99.90
50570;DHT22;36525;49.398;7.614;2023-12-20T12:47:38;4.90;99.90
50570;DHT22;36525;49.398;7.614;2023-12-20T12:50:06;4.90;99.90
50570;DHT22;36525;49.398;7.614;2023-12-20T12:52:33;4.70;99.90
50570;DHT22;36525;49.398;7.614;2023-12-20T12:55:02;4.80;99.90
50570;DHT22;36525;49.398;7.614;2023-12-20T12:57:30;4.70;99.90
50570;DHT22;36525;49.398;7.614;2023-12-20T12:59:57;4.70;99.90
50570;DHT22;36525;49.398;7.614;2023-12-20T13:02:24;4.80;99.90
50570;DHT22;36525;49.398;7.614;2023-12-20T13:04:52;4.90;99.90
50570;DHT22;36525;49.398;7.614;2023-12-20T13:07:18;5.00;99.90
50570;DHT22;36525;49.398;7.614;2023-12-20T13:09:45;5.00;99.90
50570;DHT22;36525;49.398;7.614;2023-12-20T13:12:12;5.10;99.90
50570;DHT22;36525;49.398;7.614;2023-12-20T13:14:39;5.10;99.90
50570;DHT22;36525;49.398;7.614;2023-12-20T13:17:07;5.20;99.90
50570;DHT22;36525;49.398;7.614;2023-12-20T13:19:34;5.20;99.90
50570;DHT22;36525;49.398;7.614;2023-12-20T13:22:01;5.20;99.90
50570;DHT22;36525;49.398;7.614;2023-12-20T13:24:28;5.30;99.90
50570;DHT22;36525;49.398;7.614;2023-12-20T13:26:56;5.30;99.90
50570;DHT22;36525;49.398;7.614;2023-12-20T13:29:23;5.30;99.90
50570;DHT22;36525;49.398;7.614;2023-12-20T13:31:53;5.30;99.90
50570;DHT22;36525;49.398;7.614;2023-12-20T13:34:20;5.30;99.90
50570;DHT22;36525;49.398;7.614;2023-12-20T13:36:48;5.20;99.90
50570;DHT22;36525;49.398;7.614;2023-12-20T13:39:17;5.20;99.90
50570;DHT22;36525;49.398;7.614;2023-12-20T13:41:44;5.30;99.90
50570;DHT22;36525;49.398;7.614;2023-12-20T13:44:14;5.70;99.90
50570;DHT22;36525;49.398;7.614;2023-12-20T13:46:41;6.00;99.90
50570;DHT22;36525;49.398;7.614;2023-12-20T13:49:09;6.40;99.90
50570;DHT22;36525;49.398;7.614;2023-12-20T13:51:36;6.30;99.90
50570;DHT22;36525;49.398;7.614;2023-12-20T13:54:03;6.40;99.90
50570;DHT22;36525;49.398;7.614;2023-12-20T13:56:30;6.30;99.90
50570;DHT22;36525;49.398;7.614;2023-12-20T13:59:00;6.40;99.90
50570;DHT22;36525;49.398;7.614;2023-12-20T14:01:26;6.70;99.90
50570;DHT22;36525;49.398;7.614;2023-12-20T14:03:53;6.50;99.90
50570;DHT22;36525;49.398;7.614;2023-12-20T14:06:20;6.20;99.90
50570;DHT22;36525;49.398;7.614;2023-12-20T14:08:47;6.40;99.90
50570;DHT22;36525;49.398;7.614;2023-12-20T14:11:14;6.30;99.90
50570;DHT22;36525;49.398;7.614;2023-12-20T14:13:42;5.90;99.90
50570;DHT22;36525;49.398;7.614;2023-12-20T14:16:09;5.80;99.90
50570;DHT22;36525;49.398;7.614;2023-12-20T14:18:37;5.50;99.90
50570;DHT22;36525;49.398;7.614;2023-12-20T14:21:06;5.50;99.90
50570;DHT22;36525;49.398;7.614;2023-12-20T14:23:33;5.40;99.90
50570;DHT22;36525;49.398;7.614;2023-12-20T14:26:00;5.30;99.90
50570;DHT22;36525;49.398;7.614;2023-12-20T14:28:29;5.30;99.90
50570;DHT22;36525;49.398;7.614;2023-12-20T14:30:55;5.20;99.90
50570;DHT22;36525;49.398;7.614;2023-12-20T14:33:23;5.20;99.90
50570;DHT22;36525;49.398;7.614;2023-12-20T14:35:50;5.20;99.90
50570;DHT22;36525;49.398;7.614;2023-12-20T14:38:17;5.20;99.90
50570;DHT22;36525;49.398;7.614;2023-12-20T14:40:45;5.20;99.90
50570;DHT22;36525;49.398;7.614;2023-12-20T14:43:11;5.10;99.90
50570;DHT22;36525;49.398;7.614;2023-12-20T14:45:39;5.20;99.90
50570;DHT22;36525;49.398;7.614;2023-12-20T14:48:05;5.10;99.90
50570;DHT22;36525;49.398;7.614;2023-12-20T14:50:33;5.10;99.90
50570;DHT22;36525;49.398;7.614;2023-12-20T14:53:00;5.20;99.90
50570;DHT22;36525;49.398;7.614;2023-12-20T14:55:26;5.20;99.90
50570;DHT22;36525;49.398;7.614;2023-12-20T14:57:55;5.20;99.90
50570;DHT22;36525;49.398;7.614;2023-12-20T15:00:22;5.20;99.90
50570;DHT22;36525;49.398;7.614;2023-12-20T15:02:49;5.20;99.90
50570;DHT22;36525;49.398;7.614;2023-12-20T15:05:16;5.10;99.90
50570;DHT22;36525;49.398;7.614;2023-12-20T15:07:44;5.20;99.90
50570;DHT22;36525;49.398;7.614;2023-12-20T15:10:11;5.20;99.90
50570;DHT22;36525;49.398;7.614;2023-12-20T15:12:38;5.10;99.90
50570;DHT22;36525;49.398;7.614;2023-12-20T15:15:05;5.10;99.90
50570;DHT22;36525;49.398;7.614;2023-12-20T15:17:33;5.10;99.90
50570;DHT22;36525;49.398;7.614;2023-12-20T15:20:03;5.10;99.90
50570;DHT22;36525;49.398;7.614;2023-12-20T15:22:31;5.10;99.90
50570;DHT22;36525;49.398;7.614;2023-12-20T15:25:00;5.10;99.90
50570;DHT22;36525;49.398;7.614;2023-12-20T15:27:28;5.10;99.90
50570;DHT22;36525;49.398;7.614;2023-12-20T15:29:55;5.00;99.90
50570;DHT22;36525;49.398;7.614;2023-12-20T15:32:22;5.10;99.90
50570;DHT22;36525;49.398;7.614;2023-12-20T15:34:52;5.00;99.90
50570;DHT22;36525;49.398;7.614;2023-12-20T15:37:20;5.00;99.90
50570;DHT22;36525;49.398;7.614;2023-12-20T15:39:47;5.10;99.90
50570;DHT22;36525;49.398;7.614;2023-12-20T15:42:14;5.00;99.90
50570;DHT22;36525;49.398;7.614;2023-12-20T15:44:43;5.00;99.90
50570;DHT22;36525;49.398;7.614;2023-12-20T15:47:09;5.10;99.90
50570;DHT22;36525;49.398;7.614;2023-12-20T15:49:36;5.10;99.90
50570;DHT22;36525;49.398;7.614;2023-12-20T15:52:03;5.10;99.90
50570;DHT22;36525;49.398;7.614;2023-12-20T15:54:32;5.10;99.90